createdAt,value
2018-01-05T00:00:20.159Z,1.30
2018-01-05T00:03:22.023Z,2.30
2018-01-05T00:06:23.911Z,3.80
2018-01-05T00:09:25.799Z,1.90
2018-01-05T00:12:27.667Z,3.23
2018-01-05T00:15:29.592Z,1.83
2018-01-05T00:18:31.444Z,2.30
2018-01-05T00:21:33.338Z,1.73
2018-01-05T00:24:35.217Z,2.40
2018-01-05T00:27:37.327Z,2.60
2018-01-05T00:30:39.184Z,2.47
2018-01-05T00:33:41.059Z,2.10
2018-01-05T00:36:42.928Z,2.77
2018-01-05T00:39:44.812Z,1.90
2018-01-05T00:42:46.686Z,2.40
2018-01-05T00:45:48.592Z,1.73
2018-01-05T00:48:50.618Z,1.37
2018-01-05T00:51:52.472Z,1.70
2018-01-05T00:54:54.356Z,2.40
2018-01-05T00:57:56.279Z,2.73
2018-01-05T01:00:58.127Z,3.07
2018-01-05T01:04:00.007Z,2.30
2018-01-05T01:07:01.903Z,3.07
2018-01-05T01:10:03.795Z,2.37
2018-01-05T01:13:05.682Z,1.53
2018-01-05T01:16:07.553Z,1.43
2018-01-05T01:19:09.455Z,1.73
2018-01-05T01:22:11.328Z,3.80
2018-01-05T01:25:13.201Z,1.90
2018-01-05T01:28:15.084Z,1.87
2018-01-05T01:31:16.942Z,2.13
2018-01-05T01:34:18.821Z,2.20
2018-01-05T01:37:20.688Z,2.23
2018-01-05T01:40:22.580Z,1.50
2018-01-05T01:43:24.452Z,2.98
2018-01-05T01:46:26.346Z,2.67
2018-01-05T01:49:28.194Z,2.50
2018-01-05T01:52:30.083Z,1.43
2018-01-05T01:55:31.934Z,1.80
2018-01-05T01:58:33.815Z,1.83
2018-01-05T02:01:35.683Z,2.23
2018-01-05T02:04:37.583Z,2.27
2018-01-05T02:07:39.489Z,1.53
2018-01-05T02:10:41.370Z,2.37
2018-01-05T02:13:43.371Z,3.57
2018-01-05T02:16:45.235Z,1.63
2018-01-05T02:19:47.124Z,2.33
2018-01-05T02:22:48.980Z,2.33
2018-01-05T02:25:50.855Z,2.30
2018-01-05T02:28:52.708Z,1.97
2018-01-05T02:31:54.600Z,2.23
2018-01-05T02:34:56.452Z,2.10
2018-01-05T02:37:58.320Z,3.57
2018-01-05T02:41:00.184Z,1.80
2018-01-05T02:44:02.056Z,1.90
2018-01-05T02:47:03.907Z,1.73
2018-01-05T02:50:05.795Z,1.70
2018-01-05T02:53:07.655Z,1.37
2018-01-05T02:56:09.545Z,3.03
2018-01-05T02:59:11.405Z,2.60
2018-01-05T03:02:13.288Z,1.47
2018-01-05T03:05:15.152Z,2.33
2018-01-05T03:08:17.028Z,2.07
2018-01-05T03:11:18.920Z,2.17
2018-01-05T03:14:20.771Z,1.90
2018-01-05T03:17:22.676Z,1.83
2018-01-05T03:20:24.540Z,1.63
2018-01-05T03:23:26.408Z,3.12
2018-01-05T03:26:28.271Z,1.50
2018-01-05T03:29:30.148Z,1.37
2018-01-05T03:32:32.032Z,1.72
2018-01-05T03:35:33.885Z,2.23
2018-01-05T03:38:35.759Z,1.47
2018-01-05T03:41:37.636Z,1.50
2018-01-05T03:44:39.531Z,2.52
2018-01-05T03:47:41.392Z,2.17
2018-01-05T03:50:43.524Z,1.10
2018-01-05T03:53:45.395Z,1.15
2018-01-05T03:56:47.271Z,2.10
2018-01-05T03:59:49.142Z,1.47
2018-01-05T04:02:51.023Z,2.50
2018-01-05T04:05:52.911Z,1.37
2018-01-05T04:08:55.258Z,2.80
2018-01-05T04:11:57.140Z,1.57
2018-01-05T04:14:59.004Z,2.03
2018-01-05T04:18:00.899Z,0.97
2018-01-05T04:21:02.762Z,1.37
2018-01-05T04:24:04.637Z,1.60
2018-01-05T04:27:06.488Z,1.63
2018-01-05T04:30:08.887Z,2.60
2018-01-05T04:33:10.779Z,1.97
2018-01-05T04:36:12.631Z,2.00
2018-01-05T04:39:14.516Z,1.57
2018-01-05T04:42:16.379Z,1.80
2018-01-05T04:45:18.261Z,0.93
2018-01-05T04:48:20.123Z,2.17
2018-01-05T04:51:22.011Z,2.00
2018-01-05T04:54:23.868Z,2.52
2018-01-05T04:57:25.748Z,2.10
2018-01-05T05:00:27.595Z,1.43
2018-01-05T05:03:29.472Z,2.07
2018-01-05T05:06:31.337Z,2.47
2018-01-05T05:09:33.207Z,1.70
2018-01-05T05:12:35.259Z,1.10
2018-01-05T05:15:37.115Z,1.50
2018-01-05T05:18:38.987Z,2.10
2018-01-05T05:21:40.851Z,1.63
2018-01-05T05:24:42.716Z,1.13
2018-01-05T05:27:44.566Z,2.20
2018-01-05T05:30:46.457Z,1.30
2018-01-05T05:33:48.307Z,0.90
2018-01-05T05:36:50.180Z,0.80
2018-01-05T05:39:52.056Z,1.37
2018-01-05T05:42:53.911Z,1.40
2018-01-05T05:45:55.792Z,0.98
2018-01-05T05:48:57.668Z,1.40
2018-01-05T05:51:59.539Z,1.20
2018-01-05T05:55:01.390Z,1.03
2018-01-05T05:58:03.275Z,0.90
2018-01-05T06:01:05.128Z,0.83
2018-01-05T06:04:07.003Z,1.27
2018-01-05T06:07:08.863Z,0.77
2018-01-05T06:10:11.016Z,1.13
2018-01-05T06:13:12.887Z,1.40
2018-01-05T06:16:14.759Z,0.80
2018-01-05T06:19:16.663Z,1.03
2018-01-05T06:22:18.503Z,0.73
2018-01-05T06:25:20.410Z,1.20
2018-01-05T06:28:22.271Z,1.23
2018-01-05T06:31:24.503Z,1.82
2018-01-05T06:34:26.361Z,1.40
2018-01-05T06:37:28.495Z,1.00
2018-01-05T06:40:30.367Z,1.07
2018-01-05T06:43:32.259Z,0.95
2018-01-05T06:46:34.122Z,1.23
2018-01-05T06:49:36.002Z,1.40
2018-01-05T06:52:37.860Z,1.87
2018-01-05T06:55:39.755Z,1.67
2018-01-05T06:58:41.616Z,1.33
2018-01-05T07:01:43.662Z,1.00
2018-01-05T07:04:45.529Z,1.57
2018-01-05T07:07:47.408Z,1.37
2018-01-05T07:10:49.263Z,0.70
2018-01-05T07:13:51.147Z,1.53
2018-01-05T07:16:53.019Z,1.57
2018-01-05T07:19:54.892Z,0.97
2018-01-05T07:22:56.756Z,1.30
2018-01-05T07:25:58.639Z,1.20
2018-01-05T07:29:00.560Z,0.97
2018-01-05T07:32:02.435Z,1.47
2018-01-05T07:35:04.328Z,1.40
2018-01-05T07:38:07.646Z,1.30
2018-01-05T07:41:09.527Z,0.88
2018-01-05T07:44:11.390Z,1.87
2018-01-05T07:47:13.267Z,0.87
2018-01-05T07:50:15.161Z,1.02
2018-01-05T07:53:16.995Z,1.40
2018-01-05T07:59:42.626Z,1.83
2018-01-05T08:02:44.595Z,2.17
2018-01-05T08:05:46.448Z,1.07
2018-01-05T08:08:48.343Z,0.70
2018-01-05T08:11:50.236Z,1.37
2018-01-05T08:14:52.121Z,1.00
2018-01-05T08:17:53.965Z,0.93
2018-01-05T08:20:55.859Z,1.23
2018-01-05T08:23:57.766Z,1.83
2018-01-05T08:26:59.651Z,0.87
2018-01-05T08:30:01.539Z,1.70
2018-01-05T08:33:03.436Z,1.43
2018-01-05T08:36:05.332Z,1.42
2018-01-05T08:39:07.192Z,1.23
2018-01-05T08:42:09.080Z,1.23
2018-01-05T08:45:10.966Z,1.50
2018-01-05T08:48:12.855Z,1.40
2018-01-05T08:51:14.712Z,0.90
2018-01-05T08:54:16.660Z,1.97
2018-01-05T08:57:18.783Z,1.37
2018-01-05T09:00:24.827Z,1.92
2018-01-05T09:03:26.710Z,0.97
2018-01-05T09:06:28.575Z,1.10
2018-01-05T09:09:30.667Z,1.20
2018-01-05T09:12:32.544Z,1.60
2018-01-05T09:15:34.427Z,2.23
2018-01-05T09:18:36.479Z,2.50
2018-01-05T09:21:38.337Z,2.17
2018-01-05T09:24:40.198Z,1.72
2018-01-05T09:27:42.080Z,5.17
2018-01-05T09:30:43.943Z,1.35
2018-01-05T09:33:46.148Z,2.67
2018-01-05T09:36:47.995Z,1.77
2018-01-05T09:39:49.899Z,0.77
2018-01-05T09:42:51.760Z,3.02
2018-01-05T09:45:53.831Z,2.65
2018-01-05T09:48:55.688Z,5.92
2018-01-05T09:51:57.743Z,4.35
2018-01-05T09:54:59.617Z,3.05
2018-01-05T09:58:01.513Z,6.37
2018-01-05T10:01:03.360Z,3.05
2018-01-05T10:04:05.246Z,3.02
2018-01-05T10:07:07.086Z,1.67
2018-01-05T10:10:08.980Z,1.55
2018-01-05T10:13:10.836Z,1.75
2018-01-05T10:16:12.726Z,2.42
2018-01-05T10:19:14.682Z,1.80
2018-01-05T10:22:16.557Z,5.67
2018-01-05T10:25:18.423Z,3.25
2018-01-05T10:28:20.307Z,4.55
2018-01-05T10:31:22.195Z,7.85
2018-01-05T10:34:24.048Z,2.80
2018-01-05T10:37:25.955Z,3.73
2018-01-05T10:40:27.825Z,7.03
2018-01-05T10:43:29.688Z,13.40
2018-01-05T10:46:31.576Z,4.23
2018-01-05T10:49:33.454Z,11.70
2018-01-05T10:52:35.419Z,24.40
2018-01-05T10:55:37.266Z,31.07
2018-01-05T10:58:39.139Z,19.90
2018-01-05T11:01:41.018Z,25.03
2018-01-05T11:04:42.912Z,21.27
2018-01-05T11:07:46.463Z,22.05
2018-01-05T11:10:48.327Z,25.25
2018-01-05T11:13:50.220Z,17.25
2018-01-05T11:16:52.220Z,30.10
2018-01-05T11:19:54.080Z,14.93
2018-01-05T11:22:56.315Z,14.80
2018-01-05T11:25:58.962Z,23.00
2018-01-05T11:29:00.824Z,24.83
2018-01-05T11:32:02.711Z,21.93
2018-01-05T11:35:04.568Z,23.93
2018-01-05T11:38:06.457Z,21.30
2018-01-05T11:41:08.328Z,24.13
2018-01-05T11:44:10.207Z,22.47
2018-01-05T11:47:12.079Z,18.90
2018-01-05T11:50:13.964Z,23.17
2018-01-05T11:53:15.856Z,24.23
2018-01-05T11:56:17.748Z,15.73
2018-01-05T11:59:19.599Z,23.03
2018-01-05T12:02:21.719Z,17.45
2018-01-05T12:05:23.585Z,16.60
2018-01-05T12:08:25.476Z,21.90
2018-01-05T12:11:27.366Z,19.07
2018-01-05T12:14:29.235Z,14.17
2018-01-05T12:17:31.119Z,14.30
2018-01-05T12:20:32.979Z,14.18
2018-01-05T12:23:35.033Z,18.17
2018-01-05T12:26:36.895Z,14.60
2018-01-05T12:29:38.885Z,17.57
2018-01-05T12:32:40.760Z,12.73
2018-01-05T12:35:42.647Z,10.97
2018-01-05T12:38:44.548Z,10.00
2018-01-05T12:41:48.411Z,12.60
2018-01-05T12:44:50.306Z,14.50
2018-01-05T12:47:52.167Z,10.80
2018-01-05T12:50:54.043Z,12.43
2018-01-05T12:53:55.944Z,10.50
2018-01-05T12:56:57.819Z,11.53
2018-01-05T12:59:59.687Z,10.37
2018-01-05T13:03:01.588Z,9.53
2018-01-05T13:06:03.538Z,9.87
2018-01-05T13:09:05.431Z,10.77
2018-01-05T13:12:07.291Z,10.17
2018-01-05T13:15:09.254Z,9.93
2018-01-05T13:18:11.143Z,10.97
2018-01-05T13:21:12.988Z,8.43
2018-01-05T13:24:14.880Z,10.68
2018-01-05T13:27:17.739Z,13.43
2018-01-05T13:30:19.652Z,12.53
2018-01-05T13:33:21.474Z,11.93
2018-01-05T13:36:23.367Z,12.18
2018-01-05T13:39:25.255Z,10.10
2018-01-05T13:42:27.241Z,11.40
2018-01-05T13:45:29.103Z,14.38
2018-01-05T13:48:31.048Z,10.65
2018-01-05T13:51:32.936Z,20.55
2018-01-05T13:54:34.812Z,12.88
2018-01-05T13:57:36.704Z,11.12
2018-01-05T14:00:38.560Z,9.20
2018-01-05T14:03:40.443Z,10.30
2018-01-05T14:06:42.308Z,13.48
2018-01-05T14:09:44.179Z,9.55
2018-01-05T14:12:46.124Z,10.73
2018-01-05T14:15:48.007Z,8.40
2018-01-05T14:18:49.899Z,10.70
2018-01-05T14:21:51.772Z,9.77
2018-01-05T14:24:53.648Z,11.17
2018-01-05T14:27:55.717Z,11.27
2018-01-05T14:30:57.585Z,7.40
2018-01-05T14:33:59.464Z,8.67
2018-01-05T14:37:01.328Z,6.03
2018-01-05T14:40:03.213Z,9.73
2018-01-05T14:43:05.064Z,7.67
2018-01-05T14:46:07.196Z,6.60
2018-01-05T14:49:09.052Z,7.57
2018-01-05T14:52:11.256Z,6.83
2018-01-05T14:55:13.111Z,9.27
2018-01-05T14:58:15.252Z,9.37
2018-01-05T15:01:17.127Z,10.57
2018-01-05T15:04:19.248Z,6.73
2018-01-05T15:07:21.123Z,16.47
2018-01-05T15:10:23.020Z,11.73
2018-01-05T15:13:24.902Z,8.23
2018-01-05T15:16:26.772Z,6.17
2018-01-05T15:19:28.680Z,7.77
2018-01-05T15:22:30.560Z,6.13
2018-01-05T15:25:32.404Z,6.50
2018-01-05T15:28:34.295Z,12.07
2018-01-05T15:31:36.165Z,7.83
2018-01-05T15:34:38.045Z,6.63
2018-01-05T15:37:39.906Z,11.43
2018-01-05T15:40:41.790Z,9.10
2018-01-05T15:43:43.655Z,5.80
2018-01-05T15:46:45.723Z,4.27
2018-01-05T15:49:47.612Z,7.33
2018-01-05T15:52:49.498Z,6.00
2018-01-05T15:55:51.371Z,8.17
2018-01-05T15:58:53.319Z,5.27
2018-01-05T16:01:55.167Z,7.93
2018-01-05T16:04:57.065Z,6.23
2018-01-05T16:07:58.956Z,6.10
2018-01-05T16:11:01.104Z,4.73
2018-01-05T16:14:02.968Z,5.00
2018-01-05T16:17:05.055Z,6.67
2018-01-05T16:20:06.931Z,4.40
2018-01-05T16:23:08.823Z,4.43
2018-01-05T16:26:10.695Z,6.20
2018-01-05T16:29:12.580Z,6.10
2018-01-05T16:32:14.472Z,6.53
2018-01-05T16:35:16.347Z,4.27
2018-01-05T16:38:18.257Z,4.23
2018-01-05T16:41:20.095Z,6.57
2018-01-05T16:44:21.966Z,13.15
2018-01-05T16:47:23.861Z,11.07
2018-01-05T16:50:25.716Z,13.73
2018-01-05T16:53:27.606Z,12.53
2018-01-05T16:56:29.469Z,10.80
2018-01-05T16:59:31.368Z,13.07
2018-01-05T17:02:33.224Z,9.60
2018-01-05T17:05:35.122Z,8.70
2018-01-05T17:08:36.984Z,8.33
2018-01-05T17:11:38.864Z,9.80
2018-01-05T17:14:40.712Z,9.57
2018-01-05T17:17:42.612Z,35.33
2018-01-05T17:20:44.477Z,24.30
2018-01-05T17:23:46.371Z,26.33
2018-01-05T17:26:48.367Z,17.10
2018-01-05T17:29:51.110Z,22.73
2018-01-05T17:32:53.195Z,15.13
2018-01-05T17:35:55.055Z,20.83
2018-01-05T17:38:57.055Z,17.60
2018-01-05T17:42:00.456Z,14.53
2018-01-05T17:45:02.436Z,14.43
2018-01-05T17:48:04.308Z,27.27
2018-01-05T17:51:06.251Z,15.37
2018-01-05T17:54:08.105Z,14.60
2018-01-05T17:57:09.987Z,18.92
2018-01-05T18:00:11.879Z,15.70
2018-01-05T18:03:13.762Z,12.82
2018-01-05T18:06:15.648Z,15.43
2018-01-05T18:09:17.591Z,23.25
2018-01-05T18:12:19.455Z,48.50
2018-01-05T18:15:21.358Z,45.27
2018-01-05T18:18:23.211Z,34.33
2018-01-05T18:21:25.090Z,37.20
2018-01-05T18:24:26.980Z,23.00
2018-01-05T18:27:28.847Z,24.93
2018-01-05T18:30:30.731Z,34.67
2018-01-05T18:33:32.597Z,19.25
2018-01-05T18:36:34.616Z,22.93
2018-01-05T18:39:36.482Z,17.02
2018-01-05T18:42:38.377Z,18.17
2018-01-05T18:45:40.251Z,15.77
2018-01-05T18:48:42.143Z,16.93
2018-01-05T18:51:44.001Z,20.37
2018-01-05T18:54:45.883Z,15.73
2018-01-05T18:57:47.791Z,14.73
2018-01-05T19:00:49.683Z,15.30
2018-01-05T19:03:51.539Z,15.47
2018-01-05T19:06:53.504Z,12.33
2018-01-05T19:09:55.368Z,14.50
2018-01-05T19:12:57.262Z,14.30
2018-01-05T19:15:59.159Z,13.93
2018-01-05T19:19:01.044Z,9.83
2018-01-05T19:22:02.902Z,13.70
2018-01-05T19:25:04.792Z,11.53
2018-01-05T19:28:06.652Z,14.30
2018-01-05T19:31:08.547Z,10.40
2018-01-05T19:34:10.438Z,13.30
2018-01-05T19:37:12.448Z,12.57
2018-01-05T19:40:14.419Z,8.23
2018-01-05T19:43:16.356Z,10.73
2018-01-05T19:46:18.243Z,11.97
2018-01-05T19:49:20.103Z,9.57
2018-01-05T19:52:22.051Z,10.13
2018-01-05T19:55:23.956Z,8.93
2018-01-05T19:58:26.099Z,9.97
2018-01-05T20:01:27.992Z,10.00
2018-01-05T20:04:29.915Z,10.33
2018-01-05T20:07:31.811Z,6.60
2018-01-05T20:10:34.076Z,10.67
2018-01-05T20:13:36.079Z,7.63
2018-01-05T20:16:38.303Z,8.53
2018-01-05T20:19:40.235Z,8.47
2018-01-05T20:22:42.180Z,8.53
2018-01-05T20:25:44.070Z,6.60
2018-01-05T20:28:45.971Z,6.80
2018-01-05T20:31:47.864Z,13.07
2018-01-05T20:34:49.761Z,7.10
2018-01-05T20:37:51.675Z,7.53
2018-01-05T20:40:53.590Z,6.73
2018-01-05T20:43:55.478Z,7.43
2018-01-05T20:46:57.363Z,5.77
2018-01-05T20:49:59.284Z,6.60
2018-01-05T20:53:01.256Z,5.60
2018-01-05T20:56:03.188Z,4.33
2018-01-05T20:59:05.158Z,7.53
2018-01-05T21:02:07.064Z,3.10
2018-01-05T21:05:08.944Z,2.77
2018-01-05T21:08:10.893Z,3.93
2018-01-05T21:11:12.840Z,5.83
2018-01-05T21:14:14.756Z,4.23
2018-01-05T21:17:16.647Z,8.10
2018-01-05T21:20:18.564Z,7.93
2018-01-05T21:23:20.555Z,4.47
2018-01-05T21:26:22.516Z,3.07
2018-01-05T21:29:24.495Z,6.17
2018-01-05T21:32:26.439Z,4.70
2018-01-05T21:35:28.420Z,3.33
2018-01-05T21:38:30.351Z,5.33
2018-01-05T21:41:32.337Z,3.43
2018-01-05T21:44:34.270Z,3.17
2018-01-05T21:47:37.789Z,3.10
2018-01-05T21:50:39.695Z,7.87
2018-01-05T21:53:41.700Z,2.57
2018-01-05T21:56:43.673Z,3.10
2018-01-05T21:59:45.699Z,3.63
2018-01-05T22:02:47.723Z,4.90
2018-01-05T22:05:49.596Z,3.97
2018-01-05T22:08:51.484Z,1.93
2018-01-05T22:11:53.354Z,3.23
2018-01-05T22:14:55.220Z,3.27
2018-01-05T22:17:57.395Z,2.87
2018-01-05T22:20:59.263Z,4.40
2018-01-05T22:24:01.218Z,4.33
2018-01-05T22:27:03.075Z,3.40
2018-01-05T22:30:04.962Z,3.20
2018-01-05T22:33:06.879Z,3.33
2018-01-05T22:36:08.760Z,2.73
2018-01-05T22:39:10.627Z,3.23
2018-01-05T22:42:12.516Z,2.63
2018-01-05T22:45:14.477Z,3.73
2018-01-05T22:48:16.342Z,2.07
2018-01-05T22:51:18.198Z,2.30
2018-01-05T22:54:20.074Z,3.83
2018-01-05T22:57:21.931Z,3.43
2018-01-05T23:00:23.831Z,3.43
2018-01-05T23:03:25.954Z,4.67
2018-01-05T23:06:27.820Z,2.57
2018-01-05T23:09:29.707Z,3.33
2018-01-05T23:12:31.574Z,2.60
2018-01-05T23:15:33.458Z,2.93
2018-01-05T23:18:35.347Z,2.53
2018-01-05T23:21:37.263Z,3.27
2018-01-05T23:24:39.115Z,2.73
2018-01-05T23:27:40.991Z,3.83
2018-01-05T23:30:42.842Z,2.63
2018-01-05T23:33:44.902Z,2.57
2018-01-05T23:36:46.788Z,3.40
2018-01-05T23:39:48.663Z,2.93
2018-01-05T23:42:50.651Z,2.03
2018-01-05T23:45:52.675Z,1.60
2018-01-05T23:48:54.569Z,2.57
2018-01-05T23:51:56.423Z,2.37
2018-01-05T23:54:58.312Z,2.03
2018-01-05T23:58:00.359Z,2.07
